Time;durP1;ratioP1;P1;durP2;ratioP2;P2;SDS_P1;SDS_P2;PMS_P1;PMS_P2;Temp;Humidity;BMP_temperature;BMP_pressure;BME280_temperature;BME280_humidity;BME280_pressure;Samples;Min_cycle;Max_cycle;Signal;HPM_P1;HPM_P2
2021/11/29 00:01:55;;;;;;;13.48;12.03;;;;;;;14.01;61.63;98018.91;1759206;79;21230;-62
2021/11/29 00:04:22;;;;;;;13.40;11.55;;;;;;;14.01;61.59;98029.58;1761191;80;21767;-62
2021/11/29 00:06:49;;;;;;;14.63;11.95;;;;;;;14.00;61.55;98015.92;1763592;81;21890;-62
2021/11/29 00:09:15;;;;;;;15.72;11.88;;;;;;;13.99;61.50;98019.66;1756302;81;21514;-61
2021/11/29 00:11:43;;;;;;;13.08;11.50;;;;;;;13.99;61.46;98018.32;1763476;80;21498;-62
2021/11/29 00:14:11;;;;;;;12.33;11.00;;;;;;;13.99;61.42;98015.66;1763070;81;21005;-62
2021/11/29 00:16:39;;;;;;;12.45;11.15;;;;;;;13.98;61.39;98002.80;1761399;80;21543;-62
2021/11/29 00:19:07;;;;;;;11.53;10.25;;;;;;;13.98;61.37;98003.34;1755809;81;21486;-61
2021/11/29 00:21:34;;;;;;;12.43;11.05;;;;;;;13.97;61.32;97998.53;1751918;80;21042;-62
2021/11/29 00:24:02;;;;;;;12.90;11.60;;;;;;;13.96;61.29;97991.05;1768440;81;21053;-62
2021/11/29 00:26:30;;;;;;;12.65;11.35;;;;;;;13.96;61.24;97984.38;1760426;81;21362;-63
2021/11/29 00:28:56;;;;;;;13.15;11.38;;;;;;;13.96;61.20;97972.86;1769635;81;21682;-62
2021/11/29 00:31:22;;;;;;;13.18;11.83;;;;;;;13.95;61.19;97980.06;1758533;81;21524;-62
2021/11/29 00:33:49;;;;;;;11.83;10.63;;;;;;;13.95;61.16;97975.26;1762737;80;21567;-61
2021/11/29 00:36:16;;;;;;;13.30;11.78;;;;;;;13.95;61.12;97985.41;1755965;81;21072;-62
2021/11/29 00:38:43;;;;;;;12.03;10.82;;;;;;;13.94;61.08;97980.30;1750445;80;21144;-62
2021/11/29 00:41:10;;;;;;;12.18;10.85;;;;;;;13.94;61.06;97977.62;1748780;81;21205;-61
2021/11/29 00:43:37;;;;;;;15.05;12.88;;;;;;;13.94;61.01;97968.28;1757633;81;21029;-62
2021/11/29 00:46:05;;;;;;;14.60;10.48;;;;;;;13.94;61.01;97958.94;1762978;80;21033;-62
2021/11/29 00:48:32;;;;;;;11.65;10.45;;;;;;;13.93;60.99;97962.14;1763263;81;21069;-62
2021/11/29 00:50:59;;;;;;;11.78;10.58;;;;;;;13.93;60.93;97954.12;1748336;80;21160;-61
2021/11/29 00:53:26;;;;;;;12.10;10.60;;;;;;;13.93;60.93;97942.65;1761661;81;21021;-62
2021/11/29 00:55:54;;;;;;;13.03;11.63;;;;;;;13.92;60.88;97940.48;1750322;80;21040;-61
2021/11/29 00:58:20;;;;;;;12.43;11.12;;;;;;;13.91;60.88;97928.19;1749955;81;21051;-62
2021/11/29 01:00:47;;;;;;;13.32;11.50;;;;;;;13.92;60.83;97923.66;1741818;81;21125;-61
2021/11/29 01:03:13;;;;;;;11.65;10.45;;;;;;;13.92;60.80;97920.98;1762275;80;21059;-62
2021/11/29 01:05:40;;;;;;;13.53;10.53;;;;;;;13.91;60.79;97926.86;1724966;80;21556;-63
2021/11/29 01:08:06;;;;;;;13.98;11.30;;;;;;;13.91;60.80;97932.73;1764791;80;21081;-63
2021/11/29 01:10:34;;;;;;;13.62;10.68;;;;;;;13.92;60.74;97941.01;1729504;80;21620;-62
2021/11/29 01:13:00;;;;;;;13.00;11.18;;;;;;;13.91;60.74;97927.39;1790472;79;21053;-62
2021/11/29 01:15:32;;;;;;;12.78;11.05;;;;;;;13.91;60.71;97922.05;1743542;80;21144;-62
2021/11/29 01:18:07;;;;;;;12.10;10.82;;;;;;;13.90;60.70;97922.55;1768363;80;21030;-61
2021/11/29 01:20:27;;;;;;;11.28;10.10;;;;;;;13.90;60.67;97918.55;1742719;80;21044;-62
2021/11/29 01:22:54;;;;;;;12.10;10.70;;;;;;;13.90;60.65;97923.89;1776610;80;21040;-61
2021/11/29 01:25:20;;;;;;;12.98;10.72;;;;;;;13.89;60.62;97907.59;1773971;80;21101;-62
2021/11/29 01:27:48;;;;;;;11.48;10.30;;;;;;;13.90;60.60;97897.72;1771226;80;21157;-62
2021/11/29 01:30:14;;;;;;;12.70;10.85;;;;;;;13.89;60.59;97894.25;1768625;80;21014;-62
2021/11/29 01:32:41;;;;;;;12.88;10.80;;;;;;;13.90;60.58;97898.53;1753482;81;21043;-62
2021/11/29 01:35:08;;;;;;;12.30;10.43;;;;;;;13.90;60.57;97895.86;1732824;80;21041;-61
2021/11/29 01:37:35;;;;;;;11.80;10.58;;;;;;;13.89;60.52;97898.26;1771516;80;21025;-61
2021/11/29 01:40:06;;;;;;;12.53;11.22;;;;;;;13.90;60.51;97891.86;1739943;80;21168;-62
2021/11/29 01:42:33;;;;;;;12.60;11.03;;;;;;;13.90;60.49;97881.70;1780226;79;21025;-61
2021/11/29 01:44:59;;;;;;;12.25;10.95;;;;;;;13.89;60.48;97883.58;1765107;80;21017;-62
2021/11/29 01:47:26;;;;;;;11.88;10.65;;;;;;;13.89;60.47;97874.23;1743987;80;21033;-62
2021/11/29 01:49:52;;;;;;;11.85;10.55;;;;;;;13.89;60.45;97868.09;1773152;80;21518;-61
2021/11/29 01:52:19;;;;;;;11.18;9.95;;;;;;;13.90;60.44;97869.70;1755610;81;21134;-62
2021/11/29 01:54:46;;;;;;;10.85;9.75;;;;;;;13.89;60.43;97865.42;1750330;81;21081;-61
2021/11/29 01:57:13;;;;;;;11.68;10.48;;;;;;;13.89;60.40;97852.08;1755392;81;21108;-61
2021/11/29 01:59:39;;;;;;;12.13;10.50;;;;;;;13.89;60.39;97852.08;1775021;80;21100;-62
2021/11/29 02:02:06;;;;;;;12.25;10.88;;;;;;;13.89;60.38;97851.55;1767065;80;21017;-61
2021/11/29 02:04:32;;;;;;;12.50;11.12;;;;;;;13.88;60.34;97849.10;1734162;80;23322;-63
2021/11/29 02:06:58;;;;;;;12.28;10.40;;;;;;;13.90;60.33;97856.35;1746749;80;21680;-64
2021/11/29 02:09:25;;;;;;;12.13;10.75;;;;;;;13.89;60.33;97848.88;1770071;80;21136;-63
2021/11/29 02:11:54;;;;;;;11.03;9.50;;;;;;;13.89;60.31;97844.06;1732535;80;21075;-61
2021/11/29 02:14:21;;;;;;;11.97;9.75;;;;;;;13.89;60.31;97839.53;1753789;81;21089;-61
2021/11/29 02:16:48;;;;;;;11.75;10.40;;;;;;;13.89;60.26;97834.20;1758505;80;21764;-61
2021/11/29 02:19:16;;;;;;;10.85;9.13;;;;;;;13.89;60.24;97831.52;1754683;81;21029;-61
2021/11/29 02:21:43;;;;;;;11.08;9.58;;;;;;;13.90;60.24;97826.45;1758288;80;21056;-62
2021/11/29 02:24:09;;;;;;;11.73;10.50;;;;;;;13.90;60.25;97829.66;1768225;80;21512;-62
2021/11/29 02:26:37;;;;;;;12.50;9.65;;;;;;;13.89;60.22;97831.52;1768151;80;21051;-61
2021/11/29 02:29:08;;;;;;;11.10;9.88;;;;;;;13.89;60.21;97826.19;1759962;79;21200;-62
2021/11/29 02:31:43;;;;;;;11.45;9.68;;;;;;;13.89;60.18;97812.84;1753729;81;21046;-61
2021/11/29 02:34:16;;;;;;;11.88;9.45;;;;;;;13.90;60.17;97821.66;1750089;80;21066;-61
2021/11/29 02:36:43;;;;;;;12.55;10.15;;;;;;;13.88;60.17;97812.54;1739948;80;21065;-61
2021/11/29 02:39:10;;;;;;;10.15;8.58;;;;;;;13.89;60.17;97810.70;1753487;80;21038;-61
2021/11/29 02:41:38;;;;;;;10.90;9.38;;;;;;;13.89;60.16;97815.52;1739423;81;21796;-62
2021/11/29 02:44:05;;;;;;;11.57;10.38;;;;;;;13.89;60.15;97806.17;1770409;80;21626;-63
2021/11/29 02:46:31;;;;;;;10.93;9.48;;;;;;;13.89;60.11;97802.16;1751028;80;21045;-62
2021/11/29 02:48:58;;;;;;;11.25;9.90;;;;;;;13.90;60.09;97789.63;1769728;80;20994;-62
2021/11/29 02:51:33;;;;;;;10.40;9.40;;;;;;;13.90;60.11;97793.63;1770017;80;21089;-62
2021/11/29 02:54:05;;;;;;;11.33;9.43;;;;;;;13.90;60.06;97789.09;1774161;80;21229;-61
2021/11/29 02:56:36;;;;;;;10.30;9.25;;;;;;;13.90;60.05;97785.62;1770986;80;21008;-62
2021/11/29 02:59:00;;;;;;;9.43;8.48;;;;;;;13.90;60.06;97775.74;1768245;80;21025;-63
2021/11/29 03:01:27;;;;;;;10.50;8.93;;;;;;;13.89;60.04;97770.14;1761715;80;21054;-62
2021/11/29 03:03:54;;;;;;;10.25;9.18;;;;;;;13.90;60.06;97770.41;1747942;81;21059;-63
2021/11/29 03:06:21;;;;;;;10.15;8.88;;;;;;;13.90;60.03;97773.61;1746970;80;21151;-62
2021/11/29 03:08:47;;;;;;;11.80;9.38;;;;;;;13.90;60.03;97772.27;1758462;80;21018;-62
2021/11/29 03:11:16;;;;;;;10.08;9.08;;;;;;;13.90;60.02;97758.39;1776230;79;21128;-61
2021/11/29 03:13:43;;;;;;;9.53;8.63;;;;;;;13.81;59.97;97743.83;1756997;80;21017;-63
2021/11/29 03:16:11;;;;;;;10.58;9.53;;;;;;;13.90;59.97;97753.05;1740882;80;21061;-62
2021/11/29 03:18:42;;;;;;;10.85;9.28;;;;;;;13.91;59.97;97748.55;1757595;80;21098;-61
2021/11/29 03:21:08;;;;;;;9.98;8.98;;;;;;;13.90;59.95;97742.38;1757122;81;21544;-62
2021/11/29 03:23:36;;;;;;;9.25;8.35;;;;;;;13.90;59.94;97739.70;1750402;80;21517;-63
2021/11/29 03:26:08;;;;;;;9.55;8.55;;;;;;;13.90;59.94;97739.70;1748976;81;21092;-62
2021/11/29 03:28:40;;;;;;;9.90;8.90;;;;;;;13.91;59.92;97745.34;1760085;80;21135;-62
2021/11/29 03:31:06;;;;;;;10.08;9.05;;;;;;;13.91;59.93;97728.00;1737712;81;21137;-62
2021/11/29 03:33:33;;;;;;;10.35;9.30;;;;;;;13.92;59.92;97727.47;1758487;80;20997;-62
2021/11/29 03:36:01;;;;;;;9.60;8.40;;;;;;;13.91;59.92;97721.33;1767666;81;21037;-61
2021/11/29 03:38:28;;;;;;;10.35;9.25;;;;;;;13.91;59.91;97707.98;1750222;81;21034;-63
2021/11/29 03:40:54;;;;;;;10.15;9.03;;;;;;;13.91;59.88;97695.97;1746079;80;21087;-63
2021/11/29 03:43:21;;;;;;;10.13;8.95;;;;;;;13.91;59.87;97702.64;1763427;81;23259;-62
2021/11/29 03:45:47;;;;;;;9.18;8.28;;;;;;;13.92;59.88;97704.78;1755525;81;21057;-62
2021/11/29 03:48:14;;;;;;;9.30;8.40;;;;;;;13.92;59.84;97702.91;1748396;81;21064;-62
2021/11/29 03:50:41;;;;;;;9.38;8.48;;;;;;;13.93;59.85;97699.73;1752533;81;21048;-62
2021/11/29 03:53:08;;;;;;;9.25;8.25;;;;;;;13.93;59.83;97691.20;1745097;81;21088;-63
2021/11/29 03:55:35;;;;;;;9.30;8.23;;;;;;;13.93;59.83;97685.06;1760971;81;21145;-63
2021/11/29 03:58:02;;;;;;;8.88;7.97;;;;;;;13.92;59.79;97690.90;1748981;80;21053;-62
2021/11/29 04:00:29;;;;;;;8.98;8.08;;;;;;;13.92;59.80;97690.90;1740442;81;21063;-61
2021/11/29 04:02:55;;;;;;;8.68;7.70;;;;;;;13.94;59.79;97679.45;1765173;80;21038;-62
2021/11/29 04:05:22;;;;;;;8.90;8.10;;;;;;;13.94;59.79;97679.45;1752555;81;21341;-62
2021/11/29 04:07:49;;;;;;;9.35;8.35;;;;;;;13.93;59.75;97659.70;1745630;81;22381;-61
2021/11/29 04:10:16;;;;;;;8.83;7.83;;;;;;;13.93;59.76;97675.19;1761199;80;21065;-62
2021/11/29 04:12:43;;;;;;;8.90;8.08;;;;;;;13.93;59.75;97673.05;1760910;80;21092;-62
2021/11/29 04:15:10;;;;;;;8.80;7.70;;;;;;;13.94;59.73;97666.11;1767038;80;21533;-62
2021/11/29 04:17:39;;;;;;;8.75;7.90;;;;;;;13.92;59.72;97666.88;1754577;80;21044;-61
2021/11/29 04:20:08;;;;;;;9.03;8.10;;;;;;;13.94;59.72;97659.44;1746924;80;21153;-61
2021/11/29 04:22:37;;;;;;;8.80;7.90;;;;;;;13.94;59.70;97650.62;1744351;81;21045;-62
2021/11/29 04:25:05;;;;;;;9.00;8.10;;;;;;;13.94;59.70;97643.95;1748897;80;21020;-62
2021/11/29 04:27:35;;;;;;;8.60;7.70;;;;;;;13.93;59.70;97645.82;1732886;81;21025;-61
2021/11/29 04:30:11;;;;;;;8.10;7.30;;;;;;;13.94;59.69;97649.30;1763600;80;20997;-61
2021/11/29 04:32:35;;;;;;;8.58;7.55;;;;;;;13.95;59.68;97644.25;1753420;80;21092;-62
2021/11/29 04:35:01;;;;;;;9.13;8.23;;;;;;;13.94;59.68;97643.95;1765524;80;21060;-62
2021/11/29 04:37:28;;;;;;;8.30;7.50;;;;;;;13.94;59.67;97643.42;1759266;79;21006;-62
2021/11/29 04:39:54;;;;;;;8.23;7.15;;;;;;;13.94;59.66;97634.61;1750002;81;21066;-62
2021/11/29 04:42:21;;;;;;;8.55;7.72;;;;;;;13.95;59.66;97637.05;1752439;80;21132;-61
2021/11/29 04:44:48;;;;;;;8.28;7.47;;;;;;;13.94;59.64;97630.61;1757071;81;21161;-61
2021/11/29 04:47:14;;;;;;;8.70;7.80;;;;;;;13.94;59.63;97635.41;1748725;81;21133;-62
2021/11/29 04:49:41;;;;;;;8.50;7.62;;;;;;;13.96;59.64;97635.17;1753238;79;21093;-61
2021/11/29 04:52:09;;;;;;;8.45;7.65;;;;;;;13.95;59.63;97634.91;1754290;81;21075;-62
2021/11/29 04:54:35;;;;;;;8.65;7.85;;;;;;;13.94;59.62;97628.73;1754977;80;21126;-61
2021/11/29 04:57:02;;;;;;;7.85;7.05;;;;;;;13.95;59.62;97630.37;1746754;80;21114;-62
2021/11/29 04:59:30;;;;;;;8.18;7.37;;;;;;;13.95;59.62;97619.70;1750341;81;21085;-62
2021/11/29 05:01:57;;;;;;;8.10;7.00;;;;;;;13.94;59.61;97619.40;1742063;81;21113;-61
2021/11/29 05:04:23;;;;;;;7.97;7.08;;;;;;;13.95;59.60;97620.23;1768418;80;21005;-61
2021/11/29 05:06:50;;;;;;;8.30;7.42;;;;;;;13.95;59.60;97618.36;1753094;80;21021;-62
2021/11/29 05:09:16;;;;;;;7.45;6.75;;;;;;;13.97;59.56;97624.80;1758696;81;21121;-62
2021/11/29 05:11:43;;;;;;;7.90;7.10;;;;;;;13.96;59.56;97622.66;1753822;80;21529;-62
2021/11/29 05:14:09;;;;;;;8.05;7.28;;;;;;;13.96;59.56;97625.33;1756789;80;21053;-62
2021/11/29 05:16:38;;;;;;;7.72;7.03;;;;;;;13.95;59.56;97615.69;1743900;80;21126;-62
2021/11/29 05:19:04;;;;;;;7.95;7.15;;;;;;;13.96;59.54;97610.66;1783945;80;21057;-62
2021/11/29 05:21:33;;;;;;;7.92;7.12;;;;;;;13.96;59.55;97609.31;1780187;80;21211;-63
2021/11/29 05:24:00;;;;;;;8.43;7.55;;;;;;;13.96;59.53;97599.14;1789977;79;21045;-62
2021/11/29 05:26:27;;;;;;;7.42;6.72;;;;;;;13.96;59.53;97599.97;1775167;80;21088;-63
2021/11/29 05:28:54;;;;;;;8.18;7.37;;;;;;;13.96;59.50;97602.64;1789181;79;21045;-62
2021/11/29 05:31:21;;;;;;;7.67;6.92;;;;;;;13.96;59.49;97590.63;1782691;80;21037;-62
2021/11/29 05:33:48;;;;;;;7.60;6.90;;;;;;;13.96;59.49;97597.30;1771740;80;21212;-62
2021/11/29 05:36:16;;;;;;;8.03;7.28;;;;;;;13.97;59.51;97591.43;1750412;80;21040;-63
2021/11/29 05:38:44;;;;;;;7.42;6.72;;;;;;;13.98;59.47;97600.23;1773642;80;21029;-62
2021/11/29 05:41:10;;;;;;;7.78;7.08;;;;;;;13.98;59.46;97594.37;1771367;79;21036;-66
2021/11/29 05:43:37;;;;;;;9.00;7.72;;;;;;;13.89;59.46;97579.83;1781207;80;21052;-62
2021/11/29 05:46:03;;;;;;;8.55;7.60;;;;;;;13.98;59.47;97597.57;1758514;80;21057;-63
2021/11/29 05:48:30;;;;;;;7.03;6.33;;;;;;;13.98;59.46;97601.05;1773642;80;21047;-61
2021/11/29 05:50:58;;;;;;;7.05;6.33;;;;;;;13.99;59.44;97607.21;1779710;80;21033;-62
2021/11/29 05:53:25;;;;;;;7.10;6.40;;;;;;;13.98;59.45;97612.25;1749390;80;21124;-62
2021/11/29 05:55:52;;;;;;;6.80;6.12;;;;;;;13.98;59.42;97609.59;1772062;80;21598;-62
2021/11/29 05:58:19;;;;;;;7.33;6.60;;;;;;;13.98;59.44;97609.05;1791443;80;21953;-62
2021/11/29 06:00:45;;;;;;;7.20;6.50;;;;;;;13.98;59.44;97605.58;1738658;80;21018;-62
2021/11/29 06:03:13;;;;;;;7.20;6.50;;;;;;;13.98;59.42;97593.03;1778538;79;21687;-62
2021/11/29 06:05:40;;;;;;;7.37;6.67;;;;;;;13.98;59.40;97598.38;1787633;79;21596;-63
2021/11/29 06:08:07;;;;;;;7.22;6.53;;;;;;;13.99;59.43;97604.01;1784132;79;21025;-62
2021/11/29 06:10:35;;;;;;;7.72;6.95;;;;;;;13.99;59.39;97592.53;1774113;78;21069;-64
2021/11/29 06:13:01;;;;;;;7.17;6.53;;;;;;;13.99;59.39;97584.52;1748177;80;21033;-63
2021/11/29 06:17:43;;;;;;;7.67;6.97;;;;;;;14.03;59.41;97565.62;1864509;76;28520;-62
2021/11/29 06:20:14;;;;;;;7.37;6.67;;;;;;;13.98;59.45;97568.20;1831060;77;21146;-63
2021/11/29 06:22:41;;;;;;;7.12;6.42;;;;;;;13.99;59.40;97569.84;1852551;77;21130;-64
2021/11/29 06:25:09;;;;;;;6.62;6.03;;;;;;;13.99;59.38;97578.65;1834273;77;21469;-62
2021/11/29 06:27:35;;;;;;;6.90;6.22;;;;;;;13.99;59.39;97572.51;1843672;77;21272;-63
2021/11/29 06:30:03;;;;;;;7.42;6.72;;;;;;;14.00;59.39;97580.78;1837522;77;22068;-62
2021/11/29 06:32:31;;;;;;;7.08;6.42;;;;;;;13.99;59.38;97575.18;1849707;77;21578;-63
2021/11/29 06:34:57;;;;;;;7.62;6.83;;;;;;;14.00;59.38;97576.78;1836890;77;21504;-63
2021/11/29 06:37:26;;;;;;;7.17;6.58;;;;;;;14.01;59.35;97571.73;1780178;80;21007;-61
2021/11/29 06:39:53;;;;;;;7.25;6.55;;;;;;;14.00;59.35;97566.10;1784450;80;21021;-64
2021/11/29 06:42:19;;;;;;;6.87;6.28;;;;;;;14.01;59.37;97563.73;1783481;80;21061;-66
2021/11/29 06:44:47;;;;;;;7.20;6.50;;;;;;;14.00;59.35;97556.23;1795111;79;21057;-63
2021/11/29 06:47:14;;;;;;;7.35;6.60;;;;;;;14.01;59.34;97554.39;1793159;79;21209;-65
2021/11/29 06:49:40;;;;;;;6.90;6.22;;;;;;;14.01;59.33;97545.84;1780797;79;21092;-63
2021/11/29 06:52:07;;;;;;;6.78;6.15;;;;;;;14.02;59.31;97537.30;1771655;79;21035;-62
2021/11/29 06:54:37;;;;;;;6.42;5.83;;;;;;;14.03;59.31;97541.60;1783622;79;21087;-63
2021/11/29 06:57:04;;;;;;;7.17;6.55;;;;;;;13.92;59.29;97522.74;1783661;79;21045;-61
2021/11/29 06:59:32;;;;;;;6.58;5.97;;;;;;;14.02;59.31;97527.42;1781408;79;21103;-61
2021/11/29 07:01:59;;;;;;;6.60;6.00;;;;;;;14.04;59.31;97533.86;1767837;79;21048;-61
2021/11/29 07:04:25;;;;;;;6.72;6.08;;;;;;;14.04;59.31;97512.50;1781919;79;21040;-61
2021/11/29 07:06:52;;;;;;;7.15;6.00;;;;;;;14.04;59.31;97507.16;1778452;79;21032;-64
2021/11/29 07:09:19;;;;;;;7.10;6.40;;;;;;;14.04;59.29;97503.16;1775508;79;21033;-64
2021/11/29 07:11:45;;;;;;;6.87;6.25;;;;;;;14.04;59.29;97489.81;1779333;79;21836;-63
2021/11/29 07:14:12;;;;;;;7.78;6.90;;;;;;;14.04;59.27;97485.30;1780948;79;20997;-63
2021/11/29 07:16:46;;;;;;;6.90;6.30;;;;;;;14.04;59.27;97483.14;1770632;79;21041;-62
2021/11/29 07:19:08;;;;;;;7.12;6.53;;;;;;;14.04;59.27;97475.12;1767515;79;21093;-64
2021/11/29 07:21:35;;;;;;;7.00;6.30;;;;;;;14.05;59.26;97471.42;1780874;79;21103;-62
2021/11/29 07:24:01;;;;;;;6.75;6.05;;;;;;;14.06;59.27;97471.69;1781324;79;23329;-62
2021/11/29 07:26:27;;;;;;;6.70;6.08;;;;;;;14.06;59.25;97476.52;1788260;79;21631;-62
2021/11/29 07:28:56;;;;;;;7.17;6.55;;;;;;;14.07;59.26;97477.32;1787361;79;21573;-63
2021/11/29 07:31:22;;;;;;;6.83;6.22;;;;;;;14.08;59.25;97478.92;1795749;79;21044;-63
2021/11/29 07:33:48;;;;;;;6.70;6.10;;;;;;;14.07;59.22;97470.11;1795960;79;21025;-64
2021/11/29 07:36:15;;;;;;;6.70;6.10;;;;;;;14.09;59.22;97461.86;1791517;79;21123;-63
2021/11/29 07:38:42;;;;;;;6.58;5.97;;;;;;;14.09;59.21;97467.20;1777437;79;21065;-64
2021/11/29 07:41:08;;;;;;;7.17;6.50;;;;;;;14.10;59.23;97462.95;1787598;79;21025;-63
2021/11/29 07:43:35;;;;;;;6.78;6.17;;;;;;;14.11;59.22;97461.09;1780694;79;21127;-63
2021/11/29 07:46:01;;;;;;;6.70;6.10;;;;;;;14.11;59.20;97461.89;1789219;79;21001;-62
2021/11/29 07:48:28;;;;;;;7.22;6.60;;;;;;;14.12;59.18;97456.84;1790122;79;21139;-62
2021/11/29 07:50:55;;;;;;;6.58;6.00;;;;;;;14.13;59.17;97452.30;1771635;79;21029;-63
2021/11/29 07:53:21;;;;;;;7.20;6.50;;;;;;;14.15;59.17;97452.86;1786955;79;20974;-63
2021/11/29 07:55:48;;;;;;;6.42;5.83;;;;;;;14.16;59.16;97462.50;1779724;79;21485;-63
2021/11/29 07:58:16;;;;;;;7.00;6.30;;;;;;;14.16;59.15;97449.95;1774243;79;21086;-63
2021/11/29 08:00:43;;;;;;;6.95;6.35;;;;;;;14.16;59.09;97447.28;1789814;79;21098;-63
2021/11/29 08:03:10;;;;;;;6.70;6.10;;;;;;;14.18;59.09;97447.04;1785140;79;21481;-64
2021/11/29 08:05:37;;;;;;;6.87;6.20;;;;;;;14.17;59.09;97442.73;1789691;79;21555;-63
2021/11/29 08:08:05;;;;;;;7.08;6.37;;;;;;;14.19;59.07;97439.83;1794752;79;21073;-63
2021/11/29 08:10:35;;;;;;;7.15;6.45;;;;;;;14.19;59.07;97431.28;1773008;79;20999;-63
2021/11/29 08:13:02;;;;;;;7.05;6.30;;;;;;;14.19;59.07;97428.61;1784723;79;23277;-64
2021/11/29 08:15:29;;;;;;;6.20;5.60;;;;;;;14.21;59.06;97431.04;1782741;79;21049;-65
2021/11/29 08:17:56;;;;;;;6.72;6.05;;;;;;;14.20;59.04;97414.72;1764267;79;21157;-63
2021/11/29 08:20:24;;;;;;;6.95;6.35;;;;;;;14.21;59.04;97412.34;1774254;80;21090;-63
2021/11/29 08:22:52;;;;;;;6.90;6.25;;;;;;;14.21;59.01;97405.14;1767668;80;21061;-64
2021/11/29 08:25:19;;;;;;;6.90;6.20;;;;;;;14.22;59.01;97400.63;1778503;80;21513;-64
2021/11/29 08:27:46;;;;;;;6.70;6.00;;;;;;;14.22;59.00;97397.42;1768078;79;21030;-62
2021/11/29 08:30:15;;;;;;;6.47;5.90;;;;;;;14.23;59.02;97386.20;1761334;80;21037;-62
2021/11/29 08:32:42;;;;;;;6.67;6.10;;;;;;;14.23;58.97;97380.86;1767901;80;21097;-63
2021/11/29 08:35:10;;;;;;;6.80;6.17;;;;;;;14.24;58.97;97368.60;1767644;80;21049;-62
2021/11/29 08:37:39;;;;;;;6.62;5.92;;;;;;;14.25;58.96;97362.73;1767482;80;21510;-62
2021/11/29 08:40:08;;;;;;;6.58;5.97;;;;;;;14.26;58.95;97349.66;1772226;80;21542;-63
2021/11/29 08:42:34;;;;;;;5.83;5.22;;;;;;;14.25;58.94;97344.03;1770552;80;21588;-62
2021/11/29 08:45:02;;;;;;;6.40;5.72;;;;;;;14.26;58.95;97342.99;1777493;80;21533;-62
2021/11/29 08:47:30;;;;;;;6.80;6.20;;;;;;;14.27;58.94;97337.91;1764528;80;21098;-62
2021/11/29 08:49:57;;;;;;;6.75;6.17;;;;;;;14.26;58.93;97324.30;1783704;80;21091;-61
2021/11/29 08:52:26;;;;;;;6.90;6.20;;;;;;;14.27;58.92;97319.22;1765630;79;21080;-62
2021/11/29 08:54:53;;;;;;;7.08;6.37;;;;;;;14.27;58.93;97313.34;1780558;80;21046;-62
2021/11/29 08:57:20;;;;;;;6.80;6.20;;;;;;;14.27;58.94;97309.34;1782349;80;20998;-61
2021/11/29 08:59:48;;;;;;;7.60;6.55;;;;;;;14.28;58.95;97305.63;1777881;79;21006;-62
2021/11/29 09:02:15;;;;;;;6.45;5.50;;;;;;;14.29;58.91;97291.23;1772771;80;21228;-62
2021/11/29 09:04:41;;;;;;;6.33;5.72;;;;;;;14.29;58.93;97273.04;1776990;80;20994;-63
2021/11/29 09:07:08;;;;;;;6.70;6.10;;;;;;;14.29;58.91;97272.53;1780402;80;21077;-62
2021/11/29 09:09:34;;;;;;;7.15;6.45;;;;;;;14.30;58.91;97274.66;1777435;80;21084;-62
2021/11/29 09:12:01;;;;;;;6.53;5.92;;;;;;;14.30;58.89;97268.78;1767825;80;21040;-62
2021/11/29 09:14:28;;;;;;;6.37;5.78;;;;;;;14.30;58.90;97262.11;1778988;80;21139;-62
2021/11/29 09:16:56;;;;;;;7.00;6.20;;;;;;;14.31;58.89;97258.91;1779135;79;21042;-62
2021/11/29 09:19:24;;;;;;;6.62;6.03;;;;;;;14.31;58.89;97256.23;1778275;79;21061;-61
2021/11/29 09:21:52;;;;;;;7.25;6.55;;;;;;;14.31;58.89;97248.22;1793074;79;21049;-62
2021/11/29 09:24:20;;;;;;;7.22;6.53;;;;;;;14.31;58.88;97249.05;1789086;79;21970;-62
2021/11/29 09:26:47;;;;;;;6.22;5.62;;;;;;;14.32;58.88;97245.84;1786233;79;22048;-61
2021/11/29 09:29:13;;;;;;;7.03;6.33;;;;;;;14.32;58.90;97245.30;1795469;79;20994;-62
2021/11/29 09:31:40;;;;;;;6.53;5.92;;;;;;;14.33;58.86;97236.75;1796181;79;21600;-63
2021/11/29 09:34:07;;;;;;;6.58;5.65;;;;;;;14.32;58.88;97233.28;1790855;79;21037;-62
2021/11/29 09:36:33;;;;;;;7.20;6.50;;;;;;;14.33;58.86;97229.57;1791667;79;21469;-62
2021/11/29 09:39:00;;;;;;;6.92;6.22;;;;;;;14.33;58.86;97222.89;1775002;79;21212;-61
2021/11/29 09:41:26;;;;;;;6.67;6.05;;;;;;;14.33;58.89;97215.39;1780998;79;21035;-63
2021/11/29 09:43:53;;;;;;;7.75;6.35;;;;;;;14.33;58.87;97204.70;1775023;79;21533;-62
2021/11/29 09:46:22;;;;;;;6.47;5.87;;;;;;;14.34;58.87;97207.12;1790056;79;21143;-63
2021/11/29 09:48:49;;;;;;;7.00;6.33;;;;;;;14.34;58.86;97186.30;1781289;79;21028;-63
2021/11/29 09:51:16;;;;;;;6.70;6.08;;;;;;;14.34;58.83;97185.77;1793070;79;21152;-63
2021/11/29 09:53:43;;;;;;;7.33;6.62;;;;;;;14.35;58.88;97178.55;1784215;79;21517;-62
2021/11/29 09:56:10;;;;;;;7.03;6.33;;;;;;;14.36;58.86;97174.83;1785054;79;21018;-62
2021/11/29 09:58:36;;;;;;;6.67;6.08;;;;;;;14.36;58.85;97157.47;1786440;79;21509;-62
2021/11/29 10:01:05;;;;;;;7.78;6.97;;;;;;;14.36;58.87;97148.13;1784798;79;21017;-62
2021/11/29 10:03:32;;;;;;;7.12;6.53;;;;;;;14.36;58.85;97138.23;1789345;79;21858;-64
2021/11/29 10:05:59;;;;;;;6.92;6.22;;;;;;;14.39;58.82;97133.45;1777923;79;21061;-65
2021/11/29 10:08:35;;;;;;;6.70;6.10;;;;;;;14.38;58.79;97119.30;1783541;79;21064;-62
2021/11/29 10:11:11;;;;;;;6.85;6.00;;;;;;;14.39;58.79;97117.42;1772949;80;21036;-63
2021/11/29 10:13:49;;;;;;;7.22;6.62;;;;;;;14.39;58.80;97121.42;1760798;80;21551;-62
2021/11/29 10:16:37;;;;;;;6.87;6.17;;;;;;;14.38;58.79;97115.29;1788244;80;21146;-63
2021/11/29 10:19:08;;;;;;;8.00;7.20;;;;;;;14.39;58.81;97111.57;1780882;80;21080;-63
2021/11/29 10:21:35;;;;;;;6.70;6.00;;;;;;;14.39;58.82;97106.23;1771207;80;21049;-61
2021/11/29 10:24:02;;;;;;;6.83;6.12;;;;;;;14.40;58.79;97107.02;1783520;80;21002;-61
2021/11/29 10:26:33;;;;;;;7.87;6.62;;;;;;;14.40;58.81;97118.51;1782253;79;21104;-61
2021/11/29 10:29:08;;;;;;;6.72;6.12;;;;;;;14.40;58.77;97111.83;1779042;79;21870;-63
2021/11/29 10:31:39;;;;;;;7.17;6.47;;;;;;;14.41;58.80;97113.95;1775315;80;21033;-63
2021/11/29 10:34:23;;;;;;;7.17;6.58;;;;;;;14.42;58.79;97101.69;1772415;80;21533;-62
2021/11/29 10:36:54;;;;;;;;;;;;;;;14.42;58.76;97100.36;1792862;80;21033;-62
2021/11/29 10:39:32;;;;;;;6.87;6.20;;;;;;;14.42;58.78;97097.69;1780023;80;20196;-66
2021/11/29 10:42:01;;;;;;;7.85;7.05;;;;;;;14.39;58.84;97095.55;1769155;80;21078;-65
2021/11/29 10:44:31;;;;;;;7.05;6.10;;;;;;;14.39;58.86;97086.20;1783565;80;21583;-61
2021/11/29 10:47:01;;;;;;;7.47;6.72;;;;;;;14.40;58.85;97080.32;1766639;80;21100;-61
2021/11/29 10:49:32;;;;;;;7.60;6.90;;;;;;;14.42;58.81;97078.19;1777965;79;21473;-62
2021/11/29 10:52:00;;;;;;;7.33;6.70;;;;;;;14.42;58.82;97070.18;1776702;80;21622;-63
2021/11/29 10:54:30;;;;;;;8.20;7.37;;;;;;;14.42;58.80;97062.16;1773049;80;21102;-61
2021/11/29 10:56:57;;;;;;;7.95;6.70;;;;;;;14.43;58.79;97054.41;1776557;80;21095;-60
2021/11/29 10:59:27;;;;;;;6.85;6.22;;;;;;;14.45;58.77;97050.98;1792489;80;21025;-61
2021/11/29 11:02:01;;;;;;;7.17;6.47;;;;;;;14.46;58.77;97052.57;1789518;80;22116;-62
2021/11/29 11:04:30;;;;;;;7.67;6.97;;;;;;;14.46;58.73;97056.03;1786165;80;21100;-63
2021/11/29 11:07:02;;;;;;;7.50;6.80;;;;;;;14.47;58.73;97051.52;1778297;80;21105;-62
2021/11/29 11:09:34;;;;;;;7.55;6.75;;;;;;;14.47;58.72;97048.85;1765068;80;21550;-63
2021/11/29 11:12:14;;;;;;;7.53;6.83;;;;;;;14.47;58.71;97038.17;1765991;80;21090;-60
2021/11/29 11:14:50;;;;;;;7.00;6.28;;;;;;;14.48;58.72;97035.75;1785533;80;21067;-61
2021/11/29 11:17:13;;;;;;;7.85;7.05;;;;;;;14.48;58.74;97032.54;1768654;80;21577;-61
2021/11/29 11:19:50;;;;;;;8.45;7.17;;;;;;;14.48;58.72;97028.53;1768032;80;22047;-61
2021/11/29 11:22:30;;;;;;;7.47;6.78;;;;;;;14.48;58.71;97021.86;1763545;80;21053;-62
2021/11/29 11:25:10;;;;;;;7.28;6.58;;;;;;;14.49;58.72;97021.34;1772854;80;21081;-62
2021/11/29 11:27:44;;;;;;;7.03;6.40;;;;;;;14.48;58.72;97011.71;1779608;80;21072;-62
2021/11/29 11:30:15;;;;;;;7.08;6.47;;;;;;;14.49;58.70;97004.78;1774158;80;21076;-62
2021/11/29 11:32:49;;;;;;;7.50;6.80;;;;;;;14.48;58.75;96994.34;1770143;80;21174;-62
2021/11/29 11:35:21;;;;;;;7.25;6.40;;;;;;;14.50;58.74;96981.53;1775791;80;21538;-61